Traverse City, MI

4:02 AM EDT on July 25, 2016 (GMT -0400)
Cherry Capital | | Change Station

Elev 623 ft 44.74 °N, 85.59 °W | Updated 9 minutes ago

Mostly Cloudy
Mostly Cloudy
73 °F
Feels Like 73 °F
N
4
Wind Variable Wind from SW

Today
High -- | Low -- °F
--% Chance of Precip.
Yesterday
High -- | Low -- °F
Precip. -- in
Pressure 29.84 in
Visibility 10.0 miles
Clouds Mostly Cloudy 4300 ft
Dew Point 68 °F
Humidity 84%
Rainfall 0.00 in
Snow Depth Not available.
6:21 AM 9:15 PM
Waning Gibbous, 68% visible
METAR KTVC 250753Z 22003KT 10SM BKN043 23/20 A2985 RMK AO2 SLP104 T02280200
Pressure 29.84 in
Visibility 10.0 miles
Clouds Mostly Cloudy 4300 ft
Dew Point 68 °F
Humidity 84%
Rainfall 0.00 in
Snow Depth Not available.
6:21 AM 9:15 PM
Waning Gibbous, 68% visible
METAR KTVC 250753Z 22003KT 10SM BKN043 23/20 A2985 RMK AO2 SLP104 T02280200

10-Day Weather Forecast

Almanac

Astronomy

Jul. 25, 2016 Rise Set
Actual Time
Civil Twilight
Nautical Twilight
Astronomical Twilight
Moon
Length of Visible Light
Length of Day
Tomorrow will be .
, % of the Moon is Illuminated

Today's Extremes

State Highs State Lows

Community

WunderPhotos

Upload Photos

1,927,274 photos uploaded!

WunderBlog® & News

Nearby

Air Quality

  Air Quality AQ Index Pollutant
Not available.

Snow Depth

Station Depth Elevation

Earthquake Activity

City Distance Mag. Time & Date
Minimum magnitude displayed is 2.5.

Coastal Water Temperatures

Place Temperature

Stations

Nearby Weather Stations

Station Location Temp. Windchill Dew Point Humidity Wind Precip. Elev Updated Type
                   

Watches & Warnings

There are currently no watches in effect.